createdAt,value
2023-02-02T00:01:33.735Z,7.43
2023-02-02T00:04:02.286Z,7.43
2023-02-02T00:06:31.348Z,7.44
2023-02-02T00:09:00.601Z,7.45
2023-02-02T00:11:29.357Z,7.48
2023-02-02T00:13:57.508Z,7.49
2023-02-02T00:16:43.580Z,7.50
2023-02-02T00:19:12.814Z,7.50
2023-02-02T00:21:41.215Z,7.52
2023-02-02T00:24:09.879Z,7.54
2023-02-02T00:26:38.074Z,7.52
2023-02-02T00:29:06.777Z,7.55
2023-02-02T00:31:35.034Z,7.58
2023-02-02T00:34:04.915Z,7.60
2023-02-02T00:36:32.955Z,7.59
2023-02-02T00:39:01.000Z,7.54
2023-02-02T00:41:29.295Z,7.62
2023-02-02T00:44:14.542Z,7.65
2023-02-02T00:46:43.196Z,7.63
2023-02-02T00:49:12.940Z,7.65
2023-02-02T00:51:40.963Z,7.65
2023-02-02T00:54:09.323Z,7.71
2023-02-02T00:56:38.066Z,7.70
2023-02-02T00:59:06.298Z,7.71
2023-02-02T01:01:35.080Z,7.72
2023-02-02T01:04:03.192Z,7.73
2023-02-02T01:06:32.905Z,7.72
2023-02-02T01:09:01.035Z,7.77
2023-02-02T01:11:30.979Z,7.73
2023-02-02T01:13:59.199Z,7.76
2023-02-02T01:16:27.586Z,7.80
2023-02-02T01:19:00.924Z,7.77
2023-02-02T01:21:29.709Z,7.82
2023-02-02T01:24:00.543Z,7.83
2023-02-02T01:26:28.765Z,7.88
2023-02-02T01:28:56.796Z,7.90
2023-02-02T01:31:25.286Z,7.93
2023-02-02T01:33:53.763Z,7.92
2023-02-02T01:36:22.965Z,7.95
2023-02-02T01:38:51.506Z,7.98
2023-02-02T01:41:22.422Z,8.00
2023-02-02T01:43:53.095Z,8.04
2023-02-02T01:46:22.356Z,8.02
2023-02-02T01:48:53.128Z,8.03
2023-02-02T01:51:22.377Z,8.02
2023-02-02T01:53:52.393Z,7.98
2023-02-02T01:56:25.857Z,8.00
2023-02-02T01:58:54.301Z,7.99
2023-02-02T02:01:22.413Z,8.02
2023-02-02T02:03:51.134Z,8.01
2023-02-02T02:06:20.505Z,8.05
2023-02-02T02:08:52.559Z,8.04
2023-02-02T02:11:23.459Z,8.01
2023-02-02T02:14:10.101Z,8.01
2023-02-02T02:16:55.247Z,8.00
2023-02-02T02:19:36.171Z,8.02
2023-02-02T02:22:26.322Z,8.04
2023-02-02T02:25:29.458Z,8.02
2023-02-02T02:28:17.157Z,8.04
2023-02-02T02:31:15.695Z,8.00
2023-02-02T02:33:47.539Z,8.02
2023-02-02T02:36:19.462Z,8.05
2023-02-02T02:38:52.735Z,8.03
2023-02-02T02:41:23.176Z,8.00
2023-02-02T02:43:52.499Z,8.01
2023-02-02T02:46:21.514Z,8.06
2023-02-02T02:48:51.486Z,8.06
2023-02-02T02:51:38.801Z,8.00
2023-02-02T02:54:07.233Z,8.03
2023-02-02T02:56:41.852Z,8.05
2023-02-02T02:59:15.573Z,8.05
2023-02-02T03:01:49.053Z,8.08
2023-02-02T03:04:22.602Z,8.07
2023-02-02T03:06:53.495Z,8.09
2023-02-02T03:09:24.528Z,8.11
2023-02-02T03:11:52.802Z,8.15
2023-02-02T03:14:20.840Z,8.14
2023-02-02T03:16:48.987Z,8.12
2023-02-02T03:19:18.488Z,8.18
2023-02-02T03:21:46.680Z,8.20
2023-02-02T03:24:14.856Z,8.21
2023-02-02T03:26:43.304Z,8.18
2023-02-02T03:29:11.477Z,8.23
2023-02-02T03:31:39.780Z,8.26
2023-02-02T03:34:07.910Z,8.27
2023-02-02T03:36:37.477Z,8.25
2023-02-02T03:39:05.603Z,8.27
2023-02-02T03:41:33.827Z,8.28
2023-02-02T03:44:01.882Z,8.27
2023-02-02T03:46:30.197Z,8.21
2023-02-02T03:48:58.296Z,8.17
2023-02-02T03:51:26.394Z,8.12
2023-02-02T03:53:55.921Z,8.07
2023-02-02T03:56:24.009Z,7.99
2023-02-02T03:58:52.299Z,8.00
2023-02-02T04:01:28.034Z,7.96
2023-02-02T04:03:56.233Z,7.95
2023-02-02T04:06:24.781Z,7.96
2023-02-02T04:08:53.240Z,7.95
2023-02-02T04:11:22.850Z,7.99
2023-02-02T04:13:51.046Z,7.96
2023-02-02T04:16:19.336Z,7.91
2023-02-02T04:18:47.868Z,7.94
2023-02-02T04:21:15.906Z,7.96
2023-02-02T04:23:44.207Z,7.98
2023-02-02T04:26:12.292Z,7.94
2023-02-02T04:28:41.813Z,7.94
2023-02-02T04:31:09.955Z,7.96
2023-02-02T04:33:38.163Z,7.95
2023-02-02T04:36:06.980Z,7.97
2023-02-02T04:38:35.149Z,8.00
2023-02-02T04:41:07.377Z,7.99
2023-02-02T04:43:35.741Z,8.04
2023-02-02T04:46:05.762Z,8.08
2023-02-02T04:48:33.893Z,8.07
2023-02-02T04:51:02.702Z,8.05
2023-02-02T04:53:31.275Z,8.07
2023-02-02T04:55:59.849Z,8.06
2023-02-02T04:58:27.911Z,8.05
2023-02-02T05:00:55.944Z,8.09
2023-02-02T05:03:25.559Z,8.07
2023-02-02T05:06:01.739Z,8.05
2023-02-02T05:08:30.260Z,8.07
2023-02-02T05:10:58.318Z,8.02
2023-02-02T05:13:26.423Z,8.04
2023-02-02T05:15:55.040Z,8.07
2023-02-02T05:18:25.562Z,8.05
2023-02-02T05:20:55.917Z,8.04
2023-02-02T05:23:24.045Z,8.04
2023-02-02T05:25:53.377Z,7.98
2023-02-02T05:28:21.671Z,7.98
2023-02-02T05:31:08.002Z,8.00
2023-02-02T05:33:36.209Z,8.01
2023-02-02T05:36:06.248Z,7.99
2023-02-02T05:38:34.354Z,8.00
2023-02-02T05:41:02.615Z,7.97
2023-02-02T05:43:31.804Z,7.94
2023-02-02T05:45:59.940Z,7.92
2023-02-02T05:48:28.147Z,7.92
2023-02-02T05:50:59.512Z,7.92
2023-02-02T05:53:29.232Z,7.93
2023-02-02T05:55:57.295Z,7.92
2023-02-02T05:58:25.933Z,7.93
2023-02-02T06:00:56.473Z,7.95
2023-02-02T06:03:25.309Z,7.92
2023-02-02T06:05:53.564Z,7.91
2023-02-02T06:08:21.755Z,7.94
2023-02-02T06:10:51.338Z,7.93
2023-02-02T06:13:19.470Z,7.92
2023-02-02T06:15:47.647Z,7.92
2023-02-02T06:18:15.824Z,7.91
2023-02-02T06:20:43.978Z,7.86
2023-02-02T06:23:12.168Z,7.87
2023-02-02T06:25:40.183Z,7.86
2023-02-02T06:28:09.740Z,7.87
2023-02-02T06:30:38.008Z,7.84
2023-02-02T06:33:07.458Z,7.87
2023-02-02T06:35:35.618Z,7.86
2023-02-02T06:38:03.667Z,7.84
2023-02-02T06:40:31.861Z,7.84
2023-02-02T06:43:00.523Z,7.85
2023-02-02T06:45:30.894Z,7.83
2023-02-02T06:48:00.792Z,7.87
2023-02-02T06:50:28.834Z,7.88
2023-02-02T06:52:56.966Z,7.87
2023-02-02T06:55:25.292Z,7.88
2023-02-02T06:57:57.194Z,7.90
2023-02-02T07:00:25.743Z,7.87
2023-02-02T07:02:55.242Z,7.86
2023-02-02T07:05:24.695Z,7.88
2023-02-02T07:07:52.963Z,7.87
2023-02-02T07:11:14.113Z,7.87
2023-02-02T07:13:09.418Z,7.83
2023-02-02T07:15:39.572Z,7.84
2023-02-02T07:18:09.609Z,7.83
2023-02-02T07:20:37.666Z,7.79
2023-02-02T07:23:05.783Z,7.77
2023-02-02T07:25:34.177Z,7.76
2023-02-02T07:28:02.316Z,7.70
2023-02-02T07:30:30.895Z,7.65
2023-02-02T07:32:59.018Z,7.55
2023-02-02T07:35:28.732Z,7.60
2023-02-02T07:37:57.513Z,7.52
2023-02-02T07:40:25.680Z,7.52
2023-02-02T07:42:54.021Z,7.52
2023-02-02T07:45:24.705Z,7.57
2023-02-02T07:47:59.682Z,7.58
2023-02-02T07:50:30.421Z,7.63
2023-02-02T07:53:00.172Z,7.67
2023-02-02T07:55:28.897Z,7.67
2023-02-02T07:57:59.141Z,7.70
2023-02-02T08:00:27.574Z,7.71
2023-02-02T08:02:55.941Z,7.74
2023-02-02T08:05:24.354Z,7.78
2023-02-02T08:07:54.154Z,7.79
2023-02-02T08:10:22.304Z,7.79
2023-02-02T08:12:50.385Z,7.81
2023-02-02T08:15:18.558Z,7.84
2023-02-02T08:17:50.089Z,7.81
2023-02-02T08:20:18.525Z,7.85
2023-02-02T08:22:46.591Z,7.85
2023-02-02T08:25:16.248Z,7.81
2023-02-02T08:27:46.689Z,7.88
2023-02-02T08:30:16.440Z,7.86
2023-02-02T08:32:44.956Z,7.89
2023-02-02T08:35:13.531Z,7.92
2023-02-02T08:37:41.613Z,7.88
2023-02-02T08:40:10.597Z,7.93
2023-02-02T08:42:40.043Z,7.91
2023-02-02T08:46:12.727Z,7.97
2023-02-02T08:48:10.728Z,7.96
2023-02-02T08:50:40.161Z,7.96
2023-02-02T08:53:08.408Z,7.98
2023-02-02T08:55:37.137Z,8.02
2023-02-02T08:58:06.823Z,8.06
2023-02-02T09:00:34.951Z,8.11
2023-02-02T09:03:03.127Z,8.12
2023-02-02T09:05:31.705Z,8.13
2023-02-02T09:08:00.654Z,8.21
2023-02-02T09:10:32.022Z,8.19
2023-02-02T09:13:00.284Z,8.23
2023-02-02T09:15:30.684Z,8.26
2023-02-02T09:17:59.103Z,8.28
2023-02-02T09:20:27.570Z,8.33
2023-02-02T09:22:56.731Z,8.39
2023-02-02T09:25:27.593Z,8.38
2023-02-02T09:27:55.837Z,8.43
2023-02-02T09:30:24.151Z,8.48
2023-02-02T09:32:54.318Z,8.48
2023-02-02T09:35:23.592Z,8.54
2023-02-02T09:37:51.931Z,8.52
2023-02-02T09:40:21.482Z,8.56
2023-02-02T09:42:56.779Z,8.59
2023-02-02T09:45:27.833Z,8.62
2023-02-02T09:48:03.931Z,8.57
2023-02-02T09:50:45.191Z,8.64
2023-02-02T09:53:18.610Z,8.71
2023-02-02T09:55:49.153Z,8.64
2023-02-02T09:58:20.683Z,8.70
2023-02-02T10:00:54.806Z,8.77
2023-02-02T10:03:30.769Z,8.74
2023-02-02T10:06:05.844Z,8.71
2023-02-02T10:08:36.619Z,8.77
2023-02-02T10:11:11.053Z,8.77
2023-02-02T10:13:39.749Z,8.74
2023-02-02T10:16:12.612Z,8.82
2023-02-02T10:18:46.410Z,8.73
2023-02-02T10:21:21.625Z,8.89
2023-02-02T10:23:50.153Z,8.89
2023-02-02T10:26:21.232Z,8.87
2023-02-02T10:29:00.971Z,8.94
2023-02-02T10:31:37.071Z,8.96
2023-02-02T10:34:13.832Z,8.92
2023-02-02T10:36:48.483Z,9.01
2023-02-02T10:39:23.690Z,8.97
2023-02-02T10:41:55.506Z,9.01
2023-02-02T10:44:31.304Z,8.99
2023-02-02T10:47:01.990Z,8.98
2023-02-02T10:49:34.735Z,8.99
2023-02-02T10:52:07.631Z,9.02
2023-02-02T10:54:55.846Z,8.97
2023-02-02T10:57:35.685Z,9.02
2023-02-02T11:00:07.964Z,9.01
2023-02-02T11:02:36.142Z,8.98
2023-02-02T11:05:25.538Z,9.07
2023-02-02T11:07:55.260Z,9.10
2023-02-02T11:10:24.015Z,9.13
2023-02-02T11:12:56.947Z,9.19
2023-02-02T11:15:27.907Z,9.23
2023-02-02T11:17:56.230Z,9.24
2023-02-02T11:20:33.614Z,9.30
2023-02-02T11:23:02.483Z,9.28
2023-02-02T11:25:32.883Z,9.38
2023-02-02T11:28:02.188Z,9.30
2023-02-02T11:30:34.092Z,9.40
2023-02-02T11:33:20.294Z,9.46
2023-02-02T11:35:55.556Z,9.65
2023-02-02T11:38:24.258Z,9.62
2023-02-02T11:40:56.868Z,9.73
2023-02-02T11:43:28.414Z,9.77
2023-02-02T11:46:00.269Z,9.76
2023-02-02T11:48:33.033Z,9.81
2023-02-02T11:51:03.301Z,9.76
2023-02-02T11:53:32.821Z,9.82
2023-02-02T11:56:02.352Z,9.75
2023-02-02T11:58:31.640Z,9.84
2023-02-02T12:01:01.523Z,9.92
2023-02-02T12:03:31.763Z,9.79
2023-02-02T12:06:02.115Z,9.91
2023-02-02T12:08:32.906Z,9.94
2023-02-02T12:11:02.395Z,9.88
2023-02-02T12:13:38.905Z,9.99
2023-02-02T12:16:13.251Z,9.94
2023-02-02T12:18:47.298Z,10.02
2023-02-02T12:21:19.771Z,10.00
2023-02-02T12:23:54.406Z,10.06
2023-02-02T12:26:25.257Z,10.21
2023-02-02T12:29:26.727Z,10.17
2023-02-02T12:31:59.763Z,10.26
2023-02-02T12:34:32.985Z,10.25
2023-02-02T12:37:04.796Z,10.17
2023-02-02T12:39:52.505Z,10.24
2023-02-02T12:42:38.556Z,10.16
2023-02-02T12:45:20.021Z,10.21
2023-02-02T12:47:55.598Z,10.27
2023-02-02T12:50:30.008Z,10.23
2023-02-02T12:53:07.201Z,10.18
2023-02-02T12:55:43.768Z,10.25
2023-02-02T12:58:18.263Z,10.30
2023-02-02T13:01:10.571Z,10.32
2023-02-02T13:03:44.751Z,10.18
2023-02-02T13:06:24.004Z,10.14
2023-02-02T13:08:53.986Z,10.17
2023-02-02T13:11:32.943Z,10.15
2023-02-02T13:14:06.990Z,10.08
2023-02-02T13:16:37.534Z,10.02
2023-02-02T13:19:07.374Z,9.99
2023-02-02T13:21:37.874Z,10.01
2023-02-02T13:24:08.117Z,10.03
2023-02-02T13:26:39.511Z,10.15
2023-02-02T13:29:09.431Z,10.14
2023-02-02T13:31:41.448Z,10.06
2023-02-02T13:34:16.805Z,10.09
2023-02-02T13:36:48.998Z,10.15
2023-02-02T13:39:19.548Z,10.11
2023-02-02T13:41:50.432Z,10.15
2023-02-02T13:44:22.474Z,9.99
2023-02-02T13:46:52.938Z,9.89
2023-02-02T13:49:23.111Z,9.92
2023-02-02T13:51:57.951Z,9.71
2023-02-02T13:54:41.139Z,9.73
2023-02-02T13:57:19.054Z,9.66
2023-02-02T13:59:52.888Z,9.63
2023-02-02T14:02:25.582Z,9.52
2023-02-02T14:04:56.008Z,9.56
2023-02-02T14:07:29.409Z,9.49
2023-02-02T14:09:57.649Z,9.55
2023-02-02T14:12:31.828Z,9.60
2023-02-02T14:15:00.478Z,9.60
2023-02-02T14:17:47.429Z,9.66
2023-02-02T14:20:31.361Z,9.66
2023-02-02T14:22:59.451Z,9.60
2023-02-02T14:25:47.646Z,9.74
2023-02-02T14:28:30.634Z,9.71
2023-02-02T14:31:13.766Z,9.76
2023-02-02T14:33:47.768Z,9.77
2023-02-02T14:36:17.204Z,9.84
2023-02-02T14:39:04.366Z,9.88
2023-02-02T14:42:07.510Z,9.84
2023-02-02T14:44:38.101Z,9.94
2023-02-02T14:47:32.906Z,9.92
2023-02-02T14:50:02.734Z,9.98
2023-02-02T14:52:31.046Z,9.87
2023-02-02T14:54:59.471Z,9.92
2023-02-02T14:57:28.625Z,9.85
2023-02-02T15:00:00.069Z,9.86
2023-02-02T15:02:33.458Z,9.81
2023-02-02T15:05:20.467Z,9.83
2023-02-02T15:07:54.650Z,9.71
2023-02-02T15:10:41.548Z,9.79
2023-02-02T15:13:15.110Z,9.83
2023-02-02T15:15:44.203Z,9.76
2023-02-02T15:18:14.493Z,9.82
2023-02-02T15:20:45.502Z,9.89
2023-02-02T15:23:24.522Z,9.88
2023-02-02T15:25:54.825Z,9.91
2023-02-02T15:28:25.975Z,9.93
2023-02-02T15:30:56.808Z,9.92
2023-02-02T15:33:31.006Z,9.97
2023-02-02T15:36:00.813Z,9.97
2023-02-02T15:38:33.873Z,9.96
2023-02-02T15:41:05.735Z,9.93
2023-02-02T15:43:35.856Z,9.85
2023-02-02T15:46:06.349Z,9.78
2023-02-02T15:48:36.343Z,9.84
2023-02-02T15:51:06.814Z,9.92
2023-02-02T15:53:48.325Z,9.75
2023-02-02T15:56:20.602Z,9.85
2023-02-02T15:58:49.106Z,9.78
2023-02-02T16:01:19.081Z,9.77
2023-02-02T16:03:50.056Z,9.78
2023-02-02T16:06:19.603Z,9.81
2023-02-02T16:08:50.556Z,9.79
2023-02-02T16:11:20.646Z,9.70
2023-02-02T16:13:57.893Z,9.76
2023-02-02T16:16:27.033Z,9.67
2023-02-02T16:19:06.164Z,9.71
2023-02-02T16:21:35.599Z,9.72
2023-02-02T16:24:08.645Z,9.68
2023-02-02T16:26:37.425Z,9.75
2023-02-02T16:29:06.182Z,9.74
2023-02-02T16:31:36.332Z,9.73
2023-02-02T16:34:05.011Z,9.62
2023-02-02T16:36:33.155Z,9.68
2023-02-02T16:39:01.479Z,9.64
2023-02-02T16:41:33.921Z,9.62
2023-02-02T16:44:21.002Z,9.60
2023-02-02T16:46:50.740Z,9.59
2023-02-02T16:49:20.521Z,9.63
2023-02-02T16:51:49.821Z,9.60
2023-02-02T16:54:20.968Z,9.55
2023-02-02T16:56:52.412Z,9.56
2023-02-02T16:59:24.411Z,9.54
2023-02-02T17:01:54.214Z,9.52
2023-02-02T17:04:24.647Z,9.48
2023-02-02T17:06:53.606Z,9.44
2023-02-02T17:09:34.729Z,9.40
2023-02-02T17:12:12.204Z,9.35
2023-02-02T17:14:51.412Z,9.32
2023-02-02T17:17:21.964Z,9.27
2023-02-02T17:19:50.467Z,9.21
2023-02-02T17:22:19.810Z,9.11
2023-02-02T17:24:49.344Z,9.05
2023-02-02T17:27:22.753Z,9.10
2023-02-02T17:29:50.887Z,9.10
2023-02-02T17:32:19.239Z,9.12
2023-02-02T17:34:47.288Z,9.14
2023-02-02T17:37:15.584Z,9.14
2023-02-02T17:39:43.725Z,9.08
2023-02-02T17:42:18.663Z,9.18
2023-02-02T17:44:48.715Z,9.19
2023-02-02T17:47:16.921Z,9.23
2023-02-02T17:49:45.000Z,9.24
2023-02-02T17:52:14.042Z,9.25
2023-02-02T17:54:42.376Z,9.22
2023-02-02T17:57:10.550Z,9.19
2023-02-02T17:59:38.747Z,9.20
2023-02-02T18:02:08.897Z,9.14
2023-02-02T18:04:42.744Z,9.08
2023-02-02T18:07:14.080Z,9.06
2023-02-02T18:09:42.207Z,9.02
2023-02-02T18:12:10.950Z,8.95
2023-02-02T18:14:39.421Z,8.90
2023-02-02T18:17:10.774Z,8.92
2023-02-02T18:19:44.810Z,8.90
2023-02-02T18:22:14.502Z,8.85
2023-02-02T18:24:45.996Z,8.83
2023-02-02T18:27:15.916Z,8.82
2023-02-02T18:29:46.599Z,8.79
2023-02-02T18:32:17.737Z,8.79
2023-02-02T18:34:51.249Z,8.78
2023-02-02T18:37:22.136Z,8.85
2023-02-02T18:39:50.809Z,8.85
2023-02-02T18:42:19.230Z,8.92
2023-02-02T18:44:47.545Z,8.93
2023-02-02T18:47:18.753Z,8.96
2023-02-02T18:49:47.565Z,8.96
2023-02-02T18:52:15.600Z,8.96
2023-02-02T18:54:47.694Z,8.98
2023-02-02T18:57:19.005Z,8.96
2023-02-02T18:59:47.299Z,8.97
2023-02-02T19:02:16.818Z,9.03
2023-02-02T19:05:00.637Z,9.05
2023-02-02T19:07:46.474Z,9.02
2023-02-02T19:10:14.728Z,9.04
2023-02-02T19:12:42.935Z,9.05
2023-02-02T19:15:12.747Z,9.09
2023-02-02T19:17:41.152Z,9.08
2023-02-02T19:20:20.669Z,9.09
2023-02-02T19:22:49.006Z,9.09
2023-02-02T19:25:18.352Z,9.15
2023-02-02T19:27:46.675Z,9.09
2023-02-02T19:30:17.612Z,9.18
2023-02-02T19:32:45.701Z,9.15
2023-02-02T19:35:19.730Z,9.13
2023-02-02T19:37:48.669Z,9.10
2023-02-02T19:40:21.218Z,9.12
2023-02-02T19:42:51.468Z,9.08
2023-02-02T19:45:22.940Z,9.12
2023-02-02T19:47:52.817Z,9.05
2023-02-02T19:50:23.171Z,9.08
2023-02-02T19:52:51.845Z,9.02
2023-02-02T19:55:23.347Z,9.07
2023-02-02T19:57:52.749Z,9.04
2023-02-02T20:00:23.552Z,9.07
2023-02-02T20:02:55.659Z,9.06
2023-02-02T20:05:26.669Z,9.04
2023-02-02T20:07:59.938Z,9.07
2023-02-02T20:10:30.314Z,9.03
2023-02-02T20:12:58.976Z,9.05
2023-02-02T20:15:33.376Z,9.04
2023-02-02T20:18:03.145Z,9.03
2023-02-02T20:20:36.111Z,9.00
2023-02-02T20:23:04.574Z,9.01
2023-02-02T20:25:32.809Z,9.06
2023-02-02T20:28:08.105Z,9.03
2023-02-02T20:30:36.687Z,9.08
2023-02-02T20:33:21.974Z,9.03
2023-02-02T20:35:51.939Z,9.08
2023-02-02T20:38:22.638Z,9.05
2023-02-02T20:40:51.445Z,9.10
2023-02-02T20:43:19.602Z,9.12
2023-02-02T20:45:48.465Z,9.10
2023-02-02T20:48:16.572Z,9.11
2023-02-02T20:50:46.846Z,9.11
2023-02-02T20:53:16.665Z,9.19
2023-02-02T20:55:44.900Z,9.14
2023-02-02T20:58:14.562Z,9.17
2023-02-02T21:00:42.978Z,9.15
2023-02-02T21:03:13.457Z,9.12
2023-02-02T21:05:42.253Z,9.15
2023-02-02T21:08:10.279Z,9.14
2023-02-02T21:10:40.305Z,9.12
2023-02-02T21:13:08.599Z,9.18
2023-02-02T21:15:36.939Z,9.18
2023-02-02T21:18:05.035Z,9.22
2023-02-02T21:20:33.414Z,9.23
2023-02-02T21:23:01.538Z,9.21
2023-02-02T21:25:29.640Z,9.25
2023-02-02T21:28:00.325Z,9.23
2023-02-02T21:30:29.397Z,9.24
2023-02-02T21:32:57.655Z,9.22
2023-02-02T21:35:27.540Z,9.25
2023-02-02T21:37:58.125Z,9.25
2023-02-02T21:40:28.921Z,9.24
2023-02-02T21:43:00.392Z,9.23
2023-02-02T21:45:33.563Z,9.25
2023-02-02T21:48:02.884Z,9.28
2023-02-02T21:50:33.275Z,9.29
2023-02-02T21:53:13.741Z,9.31
2023-02-02T21:55:42.014Z,9.27
2023-02-02T21:58:18.999Z,9.32
2023-02-02T22:00:47.296Z,9.28
2023-02-02T22:03:33.689Z,9.26
2023-02-02T22:06:10.389Z,9.26
2023-02-02T22:08:38.907Z,9.28
2023-02-02T22:11:13.663Z,9.29
2023-02-02T22:13:43.215Z,9.27
2023-02-02T22:16:15.029Z,9.23
2023-02-02T22:18:43.319Z,9.24
2023-02-02T22:21:13.565Z,9.24
2023-02-02T22:23:41.638Z,9.27
2023-02-02T22:26:17.865Z,9.27
2023-02-02T22:28:47.601Z,9.24
2023-02-02T22:31:16.529Z,9.26
2023-02-02T22:33:44.638Z,9.29
2023-02-02T22:36:14.903Z,9.30
2023-02-02T22:38:44.264Z,9.30
2023-02-02T22:41:13.065Z,9.26
2023-02-02T22:43:41.953Z,9.33
2023-02-02T22:46:15.357Z,9.28
2023-02-02T22:48:44.680Z,9.30
2023-02-02T22:51:13.114Z,9.32
2023-02-02T22:53:43.110Z,9.24
2023-02-02T22:56:12.701Z,9.28
2023-02-02T22:58:40.924Z,9.29
2023-02-02T23:01:09.509Z,9.31
2023-02-02T23:03:39.039Z,9.22
2023-02-02T23:06:08.464Z,9.27
2023-02-02T23:08:36.542Z,9.24
2023-02-02T23:11:05.831Z,9.20
2023-02-02T23:13:33.969Z,9.16
2023-02-02T23:16:02.292Z,9.11
2023-02-02T23:18:30.598Z,9.11
2023-02-02T23:21:00.732Z,9.14
2023-02-02T23:23:29.729Z,9.14
2023-02-02T23:25:57.941Z,9.12
2023-02-02T23:28:26.104Z,9.15
2023-02-02T23:30:54.783Z,9.14
2023-02-02T23:33:22.891Z,9.14
2023-02-02T23:35:50.979Z,9.13
2023-02-02T23:38:20.608Z,9.13
2023-02-02T23:40:48.851Z,9.13
2023-02-02T23:43:17.011Z,9.08
2023-02-02T23:45:45.008Z,9.16
2023-02-02T23:48:13.680Z,9.13
2023-02-02T23:50:42.046Z,9.12
2023-02-02T23:53:11.044Z,9.16
2023-02-02T23:55:41.459Z,9.19
2023-02-02T23:58:10.607Z,9.20
